Gruetli Laager, TN

04:25 AM CST on Decembre 18, 2014 (GMT -0600)
Altamont | Change Station
CLOSE
Current Station
Personal Weather Stations
Location: Altamont, TN
Elevation: 1850 ft
Nearby Weather Stations
Active Advisory: Special Statement

Elev 1850 ft 35.44 °N, 85.72 °W | Updated 1 minute ago

Cobèrt
Cobèrt
31.2 °F
Feels Like 31 °F
N
1.0
vent Variadís vent from SO
Gusts 1.0 mph

Auèi
High -- | Low -- °F
--% Chance of Precip.
Yesterday
High -- | Low -- °F
Precip. -- Dins
6:46 AM 4:32 PM
Waning Crescent, 15% visible
Pression 30.23 Dins
Visibilitat 10.0 miles
Nivols Cobèrt 7000 ft
Vent freg 31 °F
Punt de ròs 30 °F
Imor 95%
Rainfall 0.00 Dins
Snow Depth Not available.
UV 0 out of 12
Pollen .70 out of 12
Air Quality Not available.
Flu Activity Not available.
METAR KBGF 181015Z AUTO 35005KT 10SM OVC070 01/M01 A3023 RMK

More Conditions Fewer Conditions

Pression 30.23 Dins
Visibilitat 10.0 miles
Nivols Cobèrt 7000 ft
Vent freg 31 °F
Punt de ròs 30 °F
Imor 95%
Rainfall 0.00 Dins
Snow Depth Not available.
UV 0 out of 12
Pollen .70 out of 12
Air Quality Not available.
Flu Activity Not available.
METAR KBGF 181015Z AUTO 35005KT 10SM OVC070 01/M01 A3023 RMK

More Conditions Fewer Conditions

10-Day Weather Forecast

Almanac

Astronomy

Dec. 18, 2014 Rise Set
Actual Time
Civil Twilight
Nautical Twilight
Astronomical Twilight
Luna
Length Of Visible Light
Length of Day
Tomorrow will be .
, % of the Moon is Illuminated

Today's Extremes

State Highs State Lows

Community

WunderPhotos

Upload Photos

1,778,907 photos uploaded!

WunderBlogs® & News

Nearby

Air Quality

  Air Quality AQ Index Pollutant
Not available.

Snow Depth

Station Depth Elevation

Earthquake Activity

Vila Distance Mag. Time & Date
Minimum magnitude displayed is 2.5.

Coastal Water Temperatures

Luòc Temperatura

Nearby Weather Stations